sensor_id;sensor_type;location;lat;lon;timestamp;temperature;humidity
40023;DHT22;25713;-35.352;149.036;2023-03-31T00:02:05;16.70;78.00
40023;DHT22;25713;-35.352;149.036;2023-03-31T00:04:35;16.80;78.70
40023;DHT22;25713;-35.352;149.036;2023-03-31T00:07:05;16.80;78.50
40023;DHT22;25713;-35.352;149.036;2023-03-31T00:09:39;16.80;78.60
40023;DHT22;25713;-35.352;149.036;2023-03-31T00:12:08;16.90;77.90
40023;DHT22;25713;-35.352;149.036;2023-03-31T00:14:38;16.90;77.10
40023;DHT22;25713;-35.352;149.036;2023-03-31T00:17:07;17.00;77.90
40023;DHT22;25713;-35.352;149.036;2023-03-31T00:19:38;17.00;78.10
40023;DHT22;25713;-35.352;149.036;2023-03-31T00:22:08;16.90;77.20
40023;DHT22;25713;-35.352;149.036;2023-03-31T00:24:40;16.90;76.20
40023;DHT22;25713;-35.352;149.036;2023-03-31T00:27:10;16.90;77.70
40023;DHT22;25713;-35.352;149.036;2023-03-31T00:29:40;16.90;78.40
40023;DHT22;25713;-35.352;149.036;2023-03-31T00:32:09;17.00;78.10
40023;DHT22;25713;-35.352;149.036;2023-03-31T00:34:39;17.00;78.30
40023;DHT22;25713;-35.352;149.036;2023-03-31T00:37:08;17.00;77.70
40023;DHT22;25713;-35.352;149.036;2023-03-31T00:39:40;17.10;77.90
40023;DHT22;25713;-35.352;149.036;2023-03-31T00:42:11;17.20;76.80
40023;DHT22;25713;-35.352;149.036;2023-03-31T00:47:49;17.30;75.70
40023;DHT22;25713;-35.352;149.036;2023-03-31T00:50:23;17.20;76.10
40023;DHT22;25713;-35.352;149.036;2023-03-31T00:52:56;17.20;77.80
40023;DHT22;25713;-35.352;149.036;2023-03-31T00:55:31;17.30;76.50
40023;DHT22;25713;-35.352;149.036;2023-03-31T00:58:02;17.40;77.30
40023;DHT22;25713;-35.352;149.036;2023-03-31T01:00:33;17.40;77.40
40023;DHT22;25713;-35.352;149.036;2023-03-31T01:03:06;17.30;75.30
40023;DHT22;25713;-35.352;149.036;2023-03-31T01:05:41;17.30;77.60
40023;DHT22;25713;-35.352;149.036;2023-03-31T01:08:11;17.30;78.10
40023;DHT22;25713;-35.352;149.036;2023-03-31T01:10:46;17.30;77.70
40023;DHT22;25713;-35.352;149.036;2023-03-31T01:13:17;17.50;78.00
40023;DHT22;25713;-35.352;149.036;2023-03-31T01:15:47;17.40;76.90
40023;DHT22;25713;-35.352;149.036;2023-03-31T01:18:16;17.50;77.10
40023;DHT22;25713;-35.352;149.036;2023-03-31T01:20:58;17.60;75.90
40023;DHT22;25713;-35.352;149.036;2023-03-31T01:29:52;17.70;78.00
40023;DHT22;25713;-35.352;149.036;2023-03-31T01:39:03;17.80;74.40
40023;DHT22;25713;-35.352;149.036;2023-03-31T01:41:55;17.80;78.00
40023;DHT22;25713;-35.352;149.036;2023-03-31T01:44:32;17.80;77.00
40023;DHT22;25713;-35.352;149.036;2023-03-31T01:47:09;17.90;76.60
40023;DHT22;25713;-35.352;149.036;2023-03-31T01:49:46;17.90;76.40
40023;DHT22;25713;-35.352;149.036;2023-03-31T01:52:21;17.80;75.00
40023;DHT22;25713;-35.352;149.036;2023-03-31T01:54:54;17.80;76.90
40023;DHT22;25713;-35.352;149.036;2023-03-31T01:57:30;17.90;76.70
40023;DHT22;25713;-35.352;149.036;2023-03-31T02:00:05;17.90;75.60
40023;DHT22;25713;-35.352;149.036;2023-03-31T02:02:46;18.00;76.60
40023;DHT22;25713;-35.352;149.036;2023-03-31T02:05:19;18.10;76.40
40023;DHT22;25713;-35.352;149.036;2023-03-31T02:07:52;18.00;76.20
40023;DHT22;25713;-35.352;149.036;2023-03-31T02:10:23;18.10;76.70
40023;DHT22;25713;-35.352;149.036;2023-03-31T02:12:56;18.20;77.60
40023;DHT22;25713;-35.352;149.036;2023-03-31T02:15:29;18.20;75.40
40023;DHT22;25713;-35.352;149.036;2023-03-31T02:18:03;18.20;76.20
40023;DHT22;25713;-35.352;149.036;2023-03-31T02:20:33;18.30;75.40
40023;DHT22;25713;-35.352;149.036;2023-03-31T02:23:03;18.30;76.20
40023;DHT22;25713;-35.352;149.036;2023-03-31T02:25:35;18.30;77.70
40023;DHT22;25713;-35.352;149.036;2023-03-31T02:28:11;18.40;74.60
40023;DHT22;25713;-35.352;149.036;2023-03-31T02:30:48;18.50;74.50
40023;DHT22;25713;-35.352;149.036;2023-03-31T02:33:19;18.40;72.20
40023;DHT22;25713;-35.352;149.036;2023-03-31T02:35:49;18.30;75.00
40023;DHT22;25713;-35.352;149.036;2023-03-31T02:38:18;18.20;75.50
40023;DHT22;25713;-35.352;149.036;2023-03-31T02:40:48;18.20;75.70
40023;DHT22;25713;-35.352;149.036;2023-03-31T02:43:22;18.20;73.40
40023;DHT22;25713;-35.352;149.036;2023-03-31T02:45:51;18.20;75.40
40023;DHT22;25713;-35.352;149.036;2023-03-31T02:48:23;18.20;73.10
40023;DHT22;25713;-35.352;149.036;2023-03-31T02:57:25;18.30;76.30
40023;DHT22;25713;-35.352;149.036;2023-03-31T03:00:07;18.30;76.30
40023;DHT22;25713;-35.352;149.036;2023-03-31T03:02:45;18.40;74.40
40023;DHT22;25713;-35.352;149.036;2023-03-31T03:05:28;18.50;75.10
40023;DHT22;25713;-35.352;149.036;2023-03-31T03:08:27;18.50;75.80
40023;DHT22;25713;-35.352;149.036;2023-03-31T03:11:04;18.50;74.40
40023;DHT22;25713;-35.352;149.036;2023-03-31T03:13:38;18.60;72.30
40023;DHT22;25713;-35.352;149.036;2023-03-31T03:16:17;18.70;73.60
40023;DHT22;25713;-35.352;149.036;2023-03-31T03:18:56;18.70;72.70
40023;DHT22;25713;-35.352;149.036;2023-03-31T03:21:26;18.70;74.70
40023;DHT22;25713;-35.352;149.036;2023-03-31T03:23:55;18.70;74.80
40023;DHT22;25713;-35.352;149.036;2023-03-31T03:26:25;18.70;74.60
40023;DHT22;25713;-35.352;149.036;2023-03-31T03:28:55;18.60;73.40
40023;DHT22;25713;-35.352;149.036;2023-03-31T03:31:27;18.60;72.00
40023;DHT22;25713;-35.352;149.036;2023-03-31T03:33:56;18.60;74.00
40023;DHT22;25713;-35.352;149.036;2023-03-31T03:36:26;18.60;73.30
40023;DHT22;25713;-35.352;149.036;2023-03-31T03:38:55;18.60;72.50
40023;DHT22;25713;-35.352;149.036;2023-03-31T03:41:25;18.60;71.70
40023;DHT22;25713;-35.352;149.036;2023-03-31T03:43:54;18.70;74.20
40023;DHT22;25713;-35.352;149.036;2023-03-31T03:46:26;18.70;73.00
40023;DHT22;25713;-35.352;149.036;2023-03-31T03:48:55;18.70;72.90
40023;DHT22;25713;-35.352;149.036;2023-03-31T03:51:25;18.80;71.30
40023;DHT22;25713;-35.352;149.036;2023-03-31T03:53:54;18.80;72.30
40023;DHT22;25713;-35.352;149.036;2023-03-31T03:56:24;18.80;72.70
40023;DHT22;25713;-35.352;149.036;2023-03-31T03:58:53;18.80;72.00
40023;DHT22;25713;-35.352;149.036;2023-03-31T04:01:23;18.80;72.40
40023;DHT22;25713;-35.352;149.036;2023-03-31T04:03:54;18.80;72.10
40023;DHT22;25713;-35.352;149.036;2023-03-31T04:06:24;18.70;70.70
40023;DHT22;25713;-35.352;149.036;2023-03-31T04:08:53;18.70;71.70
40023;DHT22;25713;-35.352;149.036;2023-03-31T04:11:23;18.70;72.30
40023;DHT22;25713;-35.352;149.036;2023-03-31T04:13:52;18.70;72.70
40023;DHT22;25713;-35.352;149.036;2023-03-31T04:16:22;18.70;72.70
40023;DHT22;25713;-35.352;149.036;2023-03-31T04:18:53;18.80;72.50
40023;DHT22;25713;-35.352;149.036;2023-03-31T04:21:23;18.70;72.10
40023;DHT22;25713;-35.352;149.036;2023-03-31T04:23:53;18.70;72.40
40023;DHT22;25713;-35.352;149.036;2023-03-31T04:26:23;18.70;72.90
40023;DHT22;25713;-35.352;149.036;2023-03-31T04:28:53;18.80;73.10
40023;DHT22;25713;-35.352;149.036;2023-03-31T04:31:23;18.80;71.50
40023;DHT22;25713;-35.352;149.036;2023-03-31T04:33:55;18.70;71.00
40023;DHT22;25713;-35.352;149.036;2023-03-31T04:36:24;18.80;69.50
40023;DHT22;25713;-35.352;149.036;2023-03-31T04:38:54;18.70;69.90
40023;DHT22;25713;-35.352;149.036;2023-03-31T04:41:24;18.70;69.20
40023;DHT22;25713;-35.352;149.036;2023-03-31T04:43:54;18.80;72.00
40023;DHT22;25713;-35.352;149.036;2023-03-31T04:46:24;18.70;71.70
40023;DHT22;25713;-35.352;149.036;2023-03-31T04:48:55;18.70;71.80
40023;DHT22;25713;-35.352;149.036;2023-03-31T04:51:25;18.70;69.10
40023;DHT22;25713;-35.352;149.036;2023-03-31T04:53:54;18.70;70.20
40023;DHT22;25713;-35.352;149.036;2023-03-31T04:56:24;18.70;70.20
40023;DHT22;25713;-35.352;149.036;2023-03-31T04:58:53;18.70;71.70
40023;DHT22;25713;-35.352;149.036;2023-03-31T05:01:22;18.70;72.90
40023;DHT22;25713;-35.352;149.036;2023-03-31T05:03:52;18.70;71.30
40023;DHT22;25713;-35.352;149.036;2023-03-31T05:06:24;18.70;71.80
40023;DHT22;25713;-35.352;149.036;2023-03-31T05:08:53;18.60;69.40
40023;DHT22;25713;-35.352;149.036;2023-03-31T05:11:23;18.60;69.60
40023;DHT22;25713;-35.352;149.036;2023-03-31T05:13:52;18.60;68.00
40023;DHT22;25713;-35.352;149.036;2023-03-31T05:16:22;18.70;69.40
40023;DHT22;25713;-35.352;149.036;2023-03-31T05:18:51;18.70;69.60
40023;DHT22;25713;-35.352;149.036;2023-03-31T05:21:24;18.80;70.30
40023;DHT22;25713;-35.352;149.036;2023-03-31T05:23:54;18.80;69.60
40023;DHT22;25713;-35.352;149.036;2023-03-31T05:26:23;18.80;69.30
40023;DHT22;25713;-35.352;149.036;2023-03-31T05:28:53;18.90;70.70
40023;DHT22;25713;-35.352;149.036;2023-03-31T05:31:23;18.90;73.10
40023;DHT22;25713;-35.352;149.036;2023-03-31T05:33:53;18.90;70.90
40023;DHT22;25713;-35.352;149.036;2023-03-31T05:36:24;18.90;72.10
40023;DHT22;25713;-35.352;149.036;2023-03-31T05:38:53;19.00;72.20
40023;DHT22;25713;-35.352;149.036;2023-03-31T05:41:23;19.00;72.60
40023;DHT22;25713;-35.352;149.036;2023-03-31T05:43:52;18.90;71.60
40023;DHT22;25713;-35.352;149.036;2023-03-31T05:46:22;18.90;72.30
40023;DHT22;25713;-35.352;149.036;2023-03-31T05:48:51;18.90;71.80
40023;DHT22;25713;-35.352;149.036;2023-03-31T05:51:22;18.90;74.00
40023;DHT22;25713;-35.352;149.036;2023-03-31T05:53:52;18.80;72.60
40023;DHT22;25713;-35.352;149.036;2023-03-31T05:56:21;18.80;73.50
40023;DHT22;25713;-35.352;149.036;2023-03-31T05:58:51;18.70;72.20
40023;DHT22;25713;-35.352;149.036;2023-03-31T06:01:20;18.70;74.30
40023;DHT22;25713;-35.352;149.036;2023-03-31T06:03:50;18.60;73.90
40023;DHT22;25713;-35.352;149.036;2023-03-31T06:06:20;18.70;73.90
40023;DHT22;25713;-35.352;149.036;2023-03-31T06:08:51;18.70;74.70
40023;DHT22;25713;-35.352;149.036;2023-03-31T06:11:21;18.60;74.10
40023;DHT22;25713;-35.352;149.036;2023-03-31T06:13:51;18.60;73.20
40023;DHT22;25713;-35.352;149.036;2023-03-31T06:16:20;18.50;74.00
40023;DHT22;25713;-35.352;149.036;2023-03-31T06:18:50;18.60;73.40
40023;DHT22;25713;-35.352;149.036;2023-03-31T06:21:19;18.50;73.50
40023;DHT22;25713;-35.352;149.036;2023-03-31T06:23:51;18.50;75.80
40023;DHT22;25713;-35.352;149.036;2023-03-31T06:26:20;18.50;73.80
40023;DHT22;25713;-35.352;149.036;2023-03-31T06:28:50;18.40;74.30
40023;DHT22;25713;-35.352;149.036;2023-03-31T06:31:21;18.40;75.50
40023;DHT22;25713;-35.352;149.036;2023-03-31T06:33:51;18.40;73.30
40023;DHT22;25713;-35.352;149.036;2023-03-31T06:36:21;18.40;74.00
40023;DHT22;25713;-35.352;149.036;2023-03-31T06:38:52;18.40;73.40
40023;DHT22;25713;-35.352;149.036;2023-03-31T06:41:22;18.40;73.60
40023;DHT22;25713;-35.352;149.036;2023-03-31T06:43:55;18.30;72.80
40023;DHT22;25713;-35.352;149.036;2023-03-31T06:46:24;18.30;74.80
40023;DHT22;25713;-35.352;149.036;2023-03-31T06:48:54;18.30;75.20
40023;DHT22;25713;-35.352;149.036;2023-03-31T06:51:23;18.30;74.80
40023;DHT22;25713;-35.352;149.036;2023-03-31T06:53:55;18.30;74.20
40023;DHT22;25713;-35.352;149.036;2023-03-31T06:56:24;18.30;72.70
40023;DHT22;25713;-35.352;149.036;2023-03-31T06:58:54;18.20;73.90
40023;DHT22;25713;-35.352;149.036;2023-03-31T07:01:23;18.20;74.40
40023;DHT22;25713;-35.352;149.036;2023-03-31T07:03:53;18.20;72.90
40023;DHT22;25713;-35.352;149.036;2023-03-31T07:06:22;18.10;73.30
40023;DHT22;25713;-35.352;149.036;2023-03-31T07:08:53;18.20;74.40
40023;DHT22;25713;-35.352;149.036;2023-03-31T07:11:23;18.20;74.20
40023;DHT22;25713;-35.352;149.036;2023-03-31T07:13:52;18.20;75.20
40023;DHT22;25713;-35.352;149.036;2023-03-31T07:16:22;18.20;74.60
40023;DHT22;25713;-35.352;149.036;2023-03-31T07:18:51;18.30;74.10
40023;DHT22;25713;-35.352;149.036;2023-03-31T07:21:21;18.30;74.70
40023;DHT22;25713;-35.352;149.036;2023-03-31T07:23:50;18.30;74.00
40023;DHT22;25713;-35.352;149.036;2023-03-31T07:26:21;18.30;74.50
40023;DHT22;25713;-35.352;149.036;2023-03-31T07:28:51;18.30;74.80
40023;DHT22;25713;-35.352;149.036;2023-03-31T07:31:20;18.20;73.60
40023;DHT22;25713;-35.352;149.036;2023-03-31T07:33:50;18.20;75.00
40023;DHT22;25713;-35.352;149.036;2023-03-31T07:36:19;18.10;72.80
40023;DHT22;25713;-35.352;149.036;2023-03-31T07:38:49;18.10;75.40
40023;DHT22;25713;-35.352;149.036;2023-03-31T07:41:21;18.10;75.40
40023;DHT22;25713;-35.352;149.036;2023-03-31T07:43:49;18.10;74.80
40023;DHT22;25713;-35.352;149.036;2023-03-31T07:46:20;18.10;73.70
40023;DHT22;25713;-35.352;149.036;2023-03-31T07:48:50;18.10;74.90
40023;DHT22;25713;-35.352;149.036;2023-03-31T07:51:21;18.20;75.50
40023;DHT22;25713;-35.352;149.036;2023-03-31T07:53:52;18.20;74.50
40023;DHT22;25713;-35.352;149.036;2023-03-31T07:56:24;18.20;74.80
40023;DHT22;25713;-35.352;149.036;2023-03-31T07:58:54;18.20;74.60
40023;DHT22;25713;-35.352;149.036;2023-03-31T08:01:23;18.20;74.70
40023;DHT22;25713;-35.352;149.036;2023-03-31T08:03:53;18.20;73.00
40023;DHT22;25713;-35.352;149.036;2023-03-31T08:06:23;18.10;74.50
40023;DHT22;25713;-35.352;149.036;2023-03-31T08:08:53;18.10;74.50
40023;DHT22;25713;-35.352;149.036;2023-03-31T08:11:24;18.10;74.60
40023;DHT22;25713;-35.352;149.036;2023-03-31T08:13:53;18.00;74.00
40023;DHT22;25713;-35.352;149.036;2023-03-31T08:16:23;18.00;73.20
40023;DHT22;25713;-35.352;149.036;2023-03-31T08:18:53;17.90;74.40
40023;DHT22;25713;-35.352;149.036;2023-03-31T08:21:22;17.90;75.00
40023;DHT22;25713;-35.352;149.036;2023-03-31T08:23:54;18.00;75.10
40023;DHT22;25713;-35.352;149.036;2023-03-31T08:26:26;18.00;73.70
40023;DHT22;25713;-35.352;149.036;2023-03-31T08:28:58;17.90;75.00
40023;DHT22;25713;-35.352;149.036;2023-03-31T08:31:27;18.00;75.20
40023;DHT22;25713;-35.352;149.036;2023-03-31T08:34:00;18.00;74.80
40023;DHT22;25713;-35.352;149.036;2023-03-31T08:36:29;18.10;75.00
40023;DHT22;25713;-35.352;149.036;2023-03-31T08:38:59;18.10;75.10
40023;DHT22;25713;-35.352;149.036;2023-03-31T08:41:40;18.10;75.00
40023;DHT22;25713;-35.352;149.036;2023-03-31T08:44:17;18.10;74.80
40023;DHT22;25713;-35.352;149.036;2023-03-31T08:46:51;18.10;74.70
40023;DHT22;25713;-35.352;149.036;2023-03-31T08:49:22;18.10;74.80
40023;DHT22;25713;-35.352;149.036;2023-03-31T08:51:54;18.10;74.30
40023;DHT22;25713;-35.352;149.036;2023-03-31T08:54:30;18.10;74.20
40023;DHT22;25713;-35.352;149.036;2023-03-31T08:57:05;18.10;75.10
40023;DHT22;25713;-35.352;149.036;2023-03-31T08:59:40;18.10;74.90
40023;DHT22;25713;-35.352;149.036;2023-03-31T09:02:14;18.10;74.70
40023;DHT22;25713;-35.352;149.036;2023-03-31T09:05:11;18.10;74.60
40023;DHT22;25713;-35.352;149.036;2023-03-31T09:07:51;18.10;74.60
40023;DHT22;25713;-35.352;149.036;2023-03-31T09:10:40;18.10;74.60
40023;DHT22;25713;-35.352;149.036;2023-03-31T09:13:36;18.10;74.40
40023;DHT22;25713;-35.352;149.036;2023-03-31T09:16:13;18.10;75.10
40023;DHT22;25713;-35.352;149.036;2023-03-31T09:18:43;18.10;74.60
40023;DHT22;25713;-35.352;149.036;2023-03-31T09:21:17;18.00;74.70
40023;DHT22;25713;-35.352;149.036;2023-03-31T09:23:52;18.00;74.90
40023;DHT22;25713;-35.352;149.036;2023-03-31T09:26:25;18.00;74.70
40023;DHT22;25713;-35.352;149.036;2023-03-31T09:29:01;18.00;74.90
40023;DHT22;25713;-35.352;149.036;2023-03-31T09:31:33;18.00;75.00
40023;DHT22;25713;-35.352;149.036;2023-03-31T09:34:13;17.90;74.50
40023;DHT22;25713;-35.352;149.036;2023-03-31T09:36:43;18.00;74.70
40023;DHT22;25713;-35.352;149.036;2023-03-31T09:39:14;18.00;74.80
40023;DHT22;25713;-35.352;149.036;2023-03-31T09:41:45;18.00;74.90
40023;DHT22;25713;-35.352;149.036;2023-03-31T09:44:29;18.00;74.80
40023;DHT22;25713;-35.352;149.036;2023-03-31T09:47:02;18.00;74.70
40023;DHT22;25713;-35.352;149.036;2023-03-31T09:49:34;18.00;74.60
40023;DHT22;25713;-35.352;149.036;2023-03-31T09:52:06;18.00;74.60
40023;DHT22;25713;-35.352;149.036;2023-03-31T09:54:42;18.00;74.70
40023;DHT22;25713;-35.352;149.036;2023-03-31T09:57:15;18.00;74.60
40023;DHT22;25713;-35.352;149.036;2023-03-31T09:59:53;18.00;74.70
40023;DHT22;25713;-35.352;149.036;2023-03-31T10:02:35;18.10;74.60
40023;DHT22;25713;-35.352;149.036;2023-03-31T10:05:06;18.00;74.40
40023;DHT22;25713;-35.352;149.036;2023-03-31T10:07:50;18.00;74.30
40023;DHT22;25713;-35.352;149.036;2023-03-31T10:10:26;18.00;74.00
40023;DHT22;25713;-35.352;149.036;2023-03-31T10:12:57;18.00;74.00
40023;DHT22;25713;-35.352;149.036;2023-03-31T10:15:29;18.00;74.10
40023;DHT22;25713;-35.352;149.036;2023-03-31T10:17:59;17.90;74.00
40023;DHT22;25713;-35.352;149.036;2023-03-31T10:20:33;17.90;74.10
40023;DHT22;25713;-35.352;149.036;2023-03-31T10:23:13;18.00;74.70
40023;DHT22;25713;-35.352;149.036;2023-03-31T10:25:43;17.90;74.20
40023;DHT22;25713;-35.352;149.036;2023-03-31T10:28:17;18.00;74.40
40023;DHT22;25713;-35.352;149.036;2023-03-31T10:30:51;17.90;74.30
40023;DHT22;25713;-35.352;149.036;2023-03-31T10:33:23;17.90;74.10
40023;DHT22;25713;-35.352;149.036;2023-03-31T10:35:56;17.90;74.10
40023;DHT22;25713;-35.352;149.036;2023-03-31T10:38:29;17.90;74.10
40023;DHT22;25713;-35.352;149.036;2023-03-31T10:41:03;17.90;74.10
40023;DHT22;25713;-35.352;149.036;2023-03-31T10:43:39;17.90;74.10
40023;DHT22;25713;-35.352;149.036;2023-03-31T10:46:14;17.90;74.00
40023;DHT22;25713;-35.352;149.036;2023-03-31T10:48:44;17.80;74.00
40023;DHT22;25713;-35.352;149.036;2023-03-31T10:51:16;17.80;74.00
40023;DHT22;25713;-35.352;149.036;2023-03-31T10:53:47;17.80;74.00
40023;DHT22;25713;-35.352;149.036;2023-03-31T10:56:35;17.80;74.10
40023;DHT22;25713;-35.352;149.036;2023-03-31T10:59:23;17.80;74.20
40023;DHT22;25713;-35.352;149.036;2023-03-31T11:02:14;17.80;74.30
40023;DHT22;25713;-35.352;149.036;2023-03-31T11:04:56;17.80;74.20
40023;DHT22;25713;-35.352;149.036;2023-03-31T11:07:39;17.80;73.80
40023;DHT22;25713;-35.352;149.036;2023-03-31T11:10:27;17.80;73.60
40023;DHT22;25713;-35.352;149.036;2023-03-31T11:13:00;17.80;73.50
40023;DHT22;25713;-35.352;149.036;2023-03-31T11:15:36;17.80;73.50
40023;DHT22;25713;-35.352;149.036;2023-03-31T11:18:21;17.80;73.70
40023;DHT22;25713;-35.352;149.036;2023-03-31T11:21:01;17.70;73.90
40023;DHT22;25713;-35.352;149.036;2023-03-31T11:23:40;17.70;73.70
40023;DHT22;25713;-35.352;149.036;2023-03-31T11:26:12;17.70;73.70
40023;DHT22;25713;-35.352;149.036;2023-03-31T11:28:58;17.70;73.80
40023;DHT22;25713;-35.352;149.036;2023-03-31T11:31:37;17.70;73.90
40023;DHT22;25713;-35.352;149.036;2023-03-31T11:34:26;17.70;74.00
40023;DHT22;25713;-35.352;149.036;2023-03-31T11:37:13;17.70;74.00
40023;DHT22;25713;-35.352;149.036;2023-03-31T11:39:58;17.70;74.30
40023;DHT22;25713;-35.352;149.036;2023-03-31T11:42:36;17.80;74.00
40023;DHT22;25713;-35.352;149.036;2023-03-31T11:45:14;17.70;74.10
40023;DHT22;25713;-35.352;149.036;2023-03-31T11:47:45;17.70;73.70
40023;DHT22;25713;-35.352;149.036;2023-03-31T11:50:20;17.70;74.20
40023;DHT22;25713;-35.352;149.036;2023-03-31T11:52:55;17.70;74.00
40023;DHT22;25713;-35.352;149.036;2023-03-31T11:55:27;17.70;73.90
40023;DHT22;25713;-35.352;149.036;2023-03-31T11:58:02;17.70;74.10
40023;DHT22;25713;-35.352;149.036;2023-03-31T12:00:36;17.70;74.00
40023;DHT22;25713;-35.352;149.036;2023-03-31T12:03:11;17.70;74.00
40023;DHT22;25713;-35.352;149.036;2023-03-31T12:05:45;17.70;74.00
40023;DHT22;25713;-35.352;149.036;2023-03-31T12:08:17;17.70;74.60
40023;DHT22;25713;-35.352;149.036;2023-03-31T12:10:54;17.70;73.90
40023;DHT22;25713;-35.352;149.036;2023-03-31T12:13:35;17.70;74.30
40023;DHT22;25713;-35.352;149.036;2023-03-31T12:16:10;17.70;74.50
40023;DHT22;25713;-35.352;149.036;2023-03-31T12:18:43;17.70;73.90
40023;DHT22;25713;-35.352;149.036;2023-03-31T12:21:17;17.70;74.00
40023;DHT22;25713;-35.352;149.036;2023-03-31T12:23:50;17.70;74.10
40023;DHT22;25713;-35.352;149.036;2023-03-31T12:26:25;17.70;74.50
40023;DHT22;25713;-35.352;149.036;2023-03-31T12:28:58;17.70;75.90
40023;DHT22;25713;-35.352;149.036;2023-03-31T12:31:29;17.60;75.50
40023;DHT22;25713;-35.352;149.036;2023-03-31T12:34:04;17.60;75.10
40023;DHT22;25713;-35.352;149.036;2023-03-31T12:36:47;17.60;75.10
40023;DHT22;25713;-35.352;149.036;2023-03-31T12:39:26;17.60;74.80
40023;DHT22;25713;-35.352;149.036;2023-03-31T12:42:12;17.50;75.10
40023;DHT22;25713;-35.352;149.036;2023-03-31T12:44:50;17.60;75.30
40023;DHT22;25713;-35.352;149.036;2023-03-31T12:47:40;17.50;75.70
40023;DHT22;25713;-35.352;149.036;2023-03-31T12:50:33;17.50;75.40
40023;DHT22;25713;-35.352;149.036;2023-03-31T12:53:19;17.50;75.20
40023;DHT22;25713;-35.352;149.036;2023-03-31T12:55:55;17.50;75.10
40023;DHT22;25713;-35.352;149.036;2023-03-31T12:58:39;17.50;74.80
40023;DHT22;25713;-35.352;149.036;2023-03-31T13:01:11;17.50;74.70
40023;DHT22;25713;-35.352;149.036;2023-03-31T13:03:49;17.50;74.50
40023;DHT22;25713;-35.352;149.036;2023-03-31T13:06:50;17.50;74.40
40023;DHT22;25713;-35.352;149.036;2023-03-31T13:09:47;17.50;74.60
40023;DHT22;25713;-35.352;149.036;2023-03-31T13:12:19;17.50;75.70
40023;DHT22;25713;-35.352;149.036;2023-03-31T13:14:50;17.50;75.50
40023;DHT22;25713;-35.352;149.036;2023-03-31T13:17:26;17.50;76.10
40023;DHT22;25713;-35.352;149.036;2023-03-31T13:22:42;17.50;75.10
40023;DHT22;25713;-35.352;149.036;2023-03-31T13:28:40;17.40;75.10
40023;DHT22;25713;-35.352;149.036;2023-03-31T13:31:11;17.50;75.70
40023;DHT22;25713;-35.352;149.036;2023-03-31T13:33:46;17.50;78.30
40023;DHT22;25713;-35.352;149.036;2023-03-31T13:36:38;17.50;76.90
40023;DHT22;25713;-35.352;149.036;2023-03-31T13:42:49;17.40;75.10
40023;DHT22;25713;-35.352;149.036;2023-03-31T13:48:28;17.40;74.90
40023;DHT22;25713;-35.352;149.036;2023-03-31T13:51:16;17.40;74.80
40023;DHT22;25713;-35.352;149.036;2023-03-31T13:57:03;17.40;75.10
40023;DHT22;25713;-35.352;149.036;2023-03-31T14:00:00;17.40;76.10
40023;DHT22;25713;-35.352;149.036;2023-03-31T14:05:35;17.40;76.40
40023;DHT22;25713;-35.352;149.036;2023-03-31T14:08:09;17.30;77.10
40023;DHT22;25713;-35.352;149.036;2023-03-31T14:10:41;17.30;76.90
40023;DHT22;25713;-35.352;149.036;2023-03-31T14:13:11;17.30;78.70
40023;DHT22;25713;-35.352;149.036;2023-03-31T14:15:43;17.30;76.80
40023;DHT22;25713;-35.352;149.036;2023-03-31T14:18:17;17.30;76.00
40023;DHT22;25713;-35.352;149.036;2023-03-31T14:21:01;17.30;75.80
40023;DHT22;25713;-35.352;149.036;2023-03-31T14:23:42;17.30;75.60
40023;DHT22;25713;-35.352;149.036;2023-03-31T14:26:19;17.30;76.00
40023;DHT22;25713;-35.352;149.036;2023-03-31T14:29:06;17.20;75.40
40023;DHT22;25713;-35.352;149.036;2023-03-31T14:31:43;17.20;75.40
40023;DHT22;25713;-35.352;149.036;2023-03-31T14:34:39;17.30;77.90
40023;DHT22;25713;-35.352;149.036;2023-03-31T14:37:12;17.20;76.10
40023;DHT22;25713;-35.352;149.036;2023-03-31T14:39:44;17.20;75.70
40023;DHT22;25713;-35.352;149.036;2023-03-31T14:42:15;17.20;75.80
40023;DHT22;25713;-35.352;149.036;2023-03-31T14:44:45;17.20;75.80
40023;DHT22;25713;-35.352;149.036;2023-03-31T14:47:18;17.20;75.40
40023;DHT22;25713;-35.352;149.036;2023-03-31T15:51:59;16.70;79.50
40023;DHT22;25713;-35.352;149.036;2023-03-31T15:54:32;16.70;79.80
40023;DHT22;25713;-35.352;149.036;2023-03-31T15:57:03;16.70;79.60
40023;DHT22;25713;-35.352;149.036;2023-03-31T15:59:43;16.80;78.80
40023;DHT22;25713;-35.352;149.036;2023-03-31T16:02:15;16.70;79.20
40023;DHT22;25713;-35.352;149.036;2023-03-31T16:04:46;16.80;80.00
40023;DHT22;25713;-35.352;149.036;2023-03-31T16:07:20;16.80;79.30
40023;DHT22;25713;-35.352;149.036;2023-03-31T16:09:52;16.80;78.20
40023;DHT22;25713;-35.352;149.036;2023-03-31T16:12:26;16.80;79.70
40023;DHT22;25713;-35.352;149.036;2023-03-31T16:14:58;16.80;80.60
40023;DHT22;25713;-35.352;149.036;2023-03-31T16:17:32;16.90;79.60
40023;DHT22;25713;-35.352;149.036;2023-03-31T16:20:01;16.80;79.40
40023;DHT22;25713;-35.352;149.036;2023-03-31T16:22:35;16.80;81.10
40023;DHT22;25713;-35.352;149.036;2023-03-31T16:25:10;16.90;80.60
40023;DHT22;25713;-35.352;149.036;2023-03-31T16:27:43;16.90;80.60
40023;DHT22;25713;-35.352;149.036;2023-03-31T16:30:14;16.80;80.50
40023;DHT22;25713;-35.352;149.036;2023-03-31T16:33:01;16.90;82.00
40023;DHT22;25713;-35.352;149.036;2023-03-31T16:35:32;16.90;81.90
40023;DHT22;25713;-35.352;149.036;2023-03-31T16:38:04;16.90;81.70
40023;DHT22;25713;-35.352;149.036;2023-03-31T16:40:36;16.90;80.70
40023;DHT22;25713;-35.352;149.036;2023-03-31T16:43:09;16.90;81.30
40023;DHT22;25713;-35.352;149.036;2023-03-31T16:45:39;16.80;80.10
40023;DHT22;25713;-35.352;149.036;2023-03-31T16:48:08;16.90;80.40
40023;DHT22;25713;-35.352;149.036;2023-03-31T16:50:38;16.80;81.10
40023;DHT22;25713;-35.352;149.036;2023-03-31T16:53:12;16.80;80.30
40023;DHT22;25713;-35.352;149.036;2023-03-31T16:55:42;16.80;79.70
40023;DHT22;25713;-35.352;149.036;2023-03-31T16:58:11;16.80;80.90
40023;DHT22;25713;-35.352;149.036;2023-03-31T17:00:41;16.80;80.70
40023;DHT22;25713;-35.352;149.036;2023-03-31T17:03:10;16.80;81.40
40023;DHT22;25713;-35.352;149.036;2023-03-31T17:05:41;16.80;83.20
40023;DHT22;25713;-35.352;149.036;2023-03-31T17:08:13;16.80;83.90
40023;DHT22;25713;-35.352;149.036;2023-03-31T17:10:50;16.80;83.00